Time;durP1;ratioP1;P1;durP2;ratioP2;P2;SDS_P1;SDS_P2;PMS_P1;PMS_P2;Temp;Humidity;BMP_temperature;BMP_pressure;BME280_temperature;BME280_humidity;BME280_pressure;Samples;Min_cycle;Max_cycle;Signal;HPM_P1;HPM_P2
2022/01/23 00:02:23;;;;;;;42.35;24.58;;;;;;;5.01;96.72;101682.34;5076346;28;20043;-75
2022/01/23 00:04:49;;;;;;;44.95;23.20;;;;;;;5.03;97.12;101684.94;5077664;28;20027;-74
2022/01/23 00:07:16;;;;;;;41.22;23.38;;;;;;;5.07;97.11;101674.16;5083545;28;20028;-76
2022/01/23 00:09:42;;;;;;;40.10;24.20;;;;;;;5.11;96.77;101674.03;5091095;28;20062;-75
2022/01/23 00:12:14;;;;;;;41.42;24.23;;;;;;;5.12;97.44;101676.63;5077069;28;20044;-76
2022/01/23 00:17:25;;;;;;;41.72;24.05;;;;;;;5.12;97.11;101683.72;5097105;28;20043;-77
2022/01/23 00:19:53;;;;;;;41.97;24.60;;;;;;;5.13;96.91;101675.69;5076769;28;20572;-75
2022/01/23 00:22:32;;;;;;;41.22;23.88;;;;;;;5.13;96.69;101682.78;5080104;28;20031;-77
2022/01/23 00:30:28;;;;;;;41.72;24.02;;;;;;;5.04;96.45;101690.19;5100373;28;20089;-76
2022/01/23 00:32:56;;;;;;;40.92;23.83;;;;;;;5.05;96.97;101696.34;5079875;28;20036;-76
2022/01/23 00:35:22;;;;;;;38.78;22.90;;;;;;;5.07;96.64;101705.09;5086769;28;20028;-76
2022/01/23 00:37:47;;;;;;;39.78;24.10;;;;;;;5.09;96.87;101689.16;5086964;28;20039;-76
2022/01/23 00:40:12;;;;;;;39.35;23.15;;;;;;;5.10;97.00;101694.38;5085836;28;20050;-75
2022/01/23 00:42:38;;;;;;;39.35;23.23;;;;;;;5.07;96.64;101695.38;5086172;28;20099;-76
2022/01/23 00:47:38;;;;;;;42.35;23.70;;;;;;;5.06;96.90;101691.00;5095452;28;20036;-76
2022/01/23 00:50:04;;;;;;;39.72;23.10;;;;;;;5.08;96.91;101682.97;5078368;28;20038;-74
2022/01/23 00:52:29;;;;;;;39.33;23.98;;;;;;;5.12;97.06;101684.59;5078349;28;20043;-74
2022/01/23 00:54:55;;;;;;;39.13;23.40;;;;;;;5.12;96.74;101681.06;5087314;27;20100;-77
2022/01/23 00:57:21;;;;;;;38.15;23.20;;;;;;;5.10;97.13;101683.78;5096089;28;20040;-76
2022/01/23 00:59:46;;;;;;;41.42;24.17;;;;;;;5.07;96.86;101682.13;5086857;27;20051;-75
2022/01/23 01:02:12;;;;;;;41.17;23.33;;;;;;;5.07;97.06;101679.47;5094378;28;20038;-76
2022/01/23 01:04:39;;;;;;;42.50;23.83;;;;;;;5.09;96.85;101674.09;5095782;27;20043;-74
2022/01/23 01:07:05;;;;;;;37.88;22.63;;;;;;;5.11;96.93;101663.44;5079097;28;20035;-75
2022/01/23 01:09:31;;;;;;;40.30;24.05;;;;;;;5.13;96.36;101680.13;5086401;28;20078;-75
2022/01/23 01:12:03;;;;;;;42.78;24.90;;;;;;;5.13;96.74;101681.00;5086665;28;20051;-76
2022/01/23 01:14:59;;;;;;;39.08;23.40;;;;;;;5.12;96.78;101679.28;5094086;28;20047;-76
2022/01/23 01:31:13;;;;;;;36.95;22.42;;;;;;;5.13;96.61;101654.50;5098394;28;20075;-76
2022/01/23 01:38:49;;;;;;;40.95;23.25;;;;;;;5.11;96.79;101652.81;5096171;28;20068;-76
2022/01/23 01:41:20;;;;;;;40.97;23.35;;;;;;;5.10;96.35;101659.91;5079230;28;20507;-76
2022/01/23 01:43:47;;;;;;;43.47;23.88;;;;;;;5.12;96.59;101652.75;5079398;28;20032;-76
2022/01/23 01:46:12;;;;;;;41.58;24.05;;;;;;;5.13;96.64;101656.28;5078857;28;20040;-78
2022/01/23 01:48:41;;;;;;;40.45;23.17;;;;;;;5.15;96.79;101652.63;5078784;28;20397;-75
2022/01/23 01:51:12;;;;;;;41.10;23.90;;;;;;;5.14;96.23;101663.31;5077737;27;20040;-74
2022/01/23 01:53:38;;;;;;;39.30;23.98;;;;;;;5.11;96.25;101658.13;5079964;28;20031;-76
2022/01/23 01:56:06;;;;;;;40.67;24.33;;;;;;;5.09;96.31;101668.78;5078584;28;20038;-76
2022/01/23 02:01:04;;;;;;;39.10;23.48;;;;;;;5.06;96.61;101663.63;5095086;28;20054;-75
2022/01/23 02:08:50;;;;;;;42.53;25.10;;;;;;;5.08;96.75;101661.75;5098573;27;20054;-74
2022/01/23 02:11:21;;;;;;;45.80;24.60;;;;;;;5.07;96.50;101658.25;5085128;27;20057;-75
2022/01/23 02:13:56;;;;;;;38.90;23.73;;;;;;;5.08;96.50;101659.13;5077570;28;20070;-75
2022/01/23 02:56:48;;;;;;;43.03;24.00;;;;;;;5.09;96.37;101639.63;5095016;28;20039;-77
2022/01/23 02:59:22;;;;;;;41.80;23.52;;;;;;;5.09;96.53;101634.31;5076500;28;20057;-76
2022/01/23 03:02:11;;;;;;;45.13;24.35;;;;;;;5.09;96.68;101631.69;5078387;28;20040;-75
2022/01/23 03:04:37;;;;;;;39.70;23.40;;;;;;;5.10;96.46;101633.41;5096086;28;20062;-75
2022/01/23 03:15:09;;;;;;;40.30;23.48;;;;;;;5.02;96.30;101648.75;5094395;28;20063;-75
2022/01/23 03:26:18;;;;;;;42.63;23.67;;;;;;;5.01;96.54;101652.34;5094773;28;20549;-75
2022/01/23 03:31:28;;;;;;;40.88;24.27;;;;;;;5.06;96.25;101643.28;5090062;28;20498;-76
2022/01/23 03:33:53;;;;;;;38.92;23.13;;;;;;;5.05;96.18;101644.19;5074583;28;20036;-75
2022/01/23 03:36:19;;;;;;;41.20;23.13;;;;;;;5.06;95.81;101648.56;5072106;28;20667;-76
2022/01/23 03:38:45;;;;;;;42.92;24.35;;;;;;;5.05;96.61;101638.03;5072656;28;20062;-74
2022/01/23 03:41:11;;;;;;;42.97;24.08;;;;;;;5.04;96.33;101628.34;5073134;28;20046;-76
2022/01/23 03:43:38;;;;;;;43.67;23.70;;;;;;;5.04;95.79;101636.31;5073236;28;20044;-76
2022/01/23 03:51:10;;;;;;;40.63;22.63;;;;;;;5.05;96.19;101627.44;5089715;28;20048;-75
2022/01/23 03:53:36;;;;;;;40.03;22.98;;;;;;;5.03;96.07;101634.56;5071667;28;20525;-75
2022/01/23 03:56:01;;;;;;;41.92;23.42;;;;;;;5.03;96.14;101643.38;5079807;28;20103;-75
2022/01/23 03:58:27;;;;;;;41.17;22.13;;;;;;;5.05;95.79;101652.16;5080941;28;20131;-76
2022/01/23 04:00:52;;;;;;;42.15;23.50;;;;;;;5.04;96.25;101655.72;5071424;28;20029;-75
2022/01/23 04:03:19;;;;;;;44.00;24.50;;;;;;;5.03;96.13;101653.13;5073854;28;20028;-76
2022/01/23 04:05:45;;;;;;;40.90;23.80;;;;;;;5.03;95.71;101656.66;5073264;28;20028;-76
2022/01/23 04:08:10;;;;;;;45.35;23.60;;;;;;;5.00;96.13;101656.78;5073777;28;20035;-76
2022/01/23 04:10:39;;;;;;;39.13;22.35;;;;;;;5.01;95.93;101660.28;5080098;28;20146;-75
2022/01/23 04:13:51;;;;;;;40.47;24.35;;;;;;;4.98;96.01;101658.63;5089422;28;20025;-75
2022/01/23 04:16:23;;;;;;;44.15;24.35;;;;;;;4.99;95.79;101652.41;5079661;28;20035;-76
2022/01/23 04:33:16;;;;;;;41.08;23.38;;;;;;;4.99;96.28;101659.47;5091123;28;20046;-76
2022/01/23 04:45:16;;;;;;;40.47;22.88;;;;;;;4.99;95.51;101659.47;5075204;28;20032;-76
2022/01/23 05:00:24;;;;;;;41.28;23.20;;;;;;;4.98;95.94;101663.06;5088876;28;20382;-76
2022/01/23 05:05:27;;;;;;;43.05;24.20;;;;;;;5.00;95.68;101661.22;5088598;28;20070;-76
2022/01/23 05:07:55;;;;;;;41.90;23.33;;;;;;;5.03;95.95;101659.31;5072147;28;20028;-76
2022/01/23 05:10:20;;;;;;;40.53;22.50;;;;;;;5.03;96.12;101655.78;5083287;28;20036;-75
2022/01/23 05:12:45;;;;;;;39.88;23.23;;;;;;;5.00;96.03;101661.22;5075762;28;20081;-77
2022/01/23 05:15:12;;;;;;;38.15;22.90;;;;;;;4.98;95.80;101663.06;5075818;28;20044;-75
2022/01/23 05:17:37;;;;;;;40.50;23.15;;;;;;;4.98;95.91;101657.75;5082060;28;20086;-75
2022/01/23 05:20:05;;;;;;;39.83;23.23;;;;;;;4.98;95.51;101655.97;5082250;28;20995;-75
2022/01/23 05:22:42;;;;;;;40.47;23.70;;;;;;;4.96;95.87;101647.22;5076785;28;20028;-75
2022/01/23 05:25:16;;;;;;;38.90;22.15;;;;;;;4.99;95.83;101655.03;5075729;28;20032;-76
2022/01/23 05:27:41;;;;;;;39.80;21.92;;;;;;;4.99;95.96;101648.88;5075342;28;21037;-74
2022/01/23 05:30:09;;;;;;;40.97;23.35;;;;;;;5.00;95.67;101647.94;5082408;28;20079;-76
2022/01/23 05:32:40;;;;;;;40.17;22.35;;;;;;;4.98;95.81;101655.97;5082090;28;20037;-75
2022/01/23 05:35:07;;;;;;;40.35;22.88;;;;;;;4.98;95.77;101655.09;5075825;28;20035;-74
2022/01/23 05:37:34;;;;;;;43.08;23.38;;;;;;;4.96;95.56;101655.16;5074802;28;20040;-76
2022/01/23 05:39:59;;;;;;;41.55;23.98;;;;;;;4.94;95.77;101654.38;5075872;28;20067;-76
2022/01/23 05:42:25;;;;;;;40.97;23.50;;;;;;;4.95;96.03;101660.53;5074793;28;20024;-75
2022/01/23 05:44:50;;;;;;;40.95;21.95;;;;;;;4.94;96.27;101659.66;5082065;28;20041;-75
2022/01/23 05:47:18;;;;;;;44.60;22.92;;;;;;;4.95;95.88;101655.22;5082397;28;20024;-75
2022/01/23 05:49:44;;;;;;;40.25;23.60;;;;;;;4.95;95.85;101658.75;5074483;28;20089;-76
2022/01/23 05:52:10;;;;;;;40.25;22.63;;;;;;;4.96;96.16;101660.47;5073508;28;20487;-75
2022/01/23 05:54:35;;;;;;;38.38;22.55;;;;;;;4.97;95.64;101651.59;5081456;28;20235;-75
2022/01/23 05:57:02;;;;;;;41.40;22.98;;;;;;;5.01;95.80;101647.03;5074523;28;20095;-74
2022/01/23 05:59:27;;;;;;;41.20;23.33;;;;;;;4.99;95.79;101659.47;5091379;28;20028;-74
2022/01/23 06:01:55;;;;;;;43.97;25.52;;;;;;;4.98;95.91;101663.06;5082183;28;20852;-76
2022/01/23 06:04:21;;;;;;;41.85;23.13;;;;;;;4.99;95.47;101668.28;5089197;28;20095;-75
2022/01/23 06:06:47;;;;;;;41.20;23.42;;;;;;;4.98;95.45;101663.06;5083629;28;20043;-76
2022/01/23 06:09:13;;;;;;;38.95;22.83;;;;;;;4.98;95.62;101665.72;5074809;28;20054;-75
2022/01/23 06:11:38;;;;;;;43.13;23.48;;;;;;;4.96;95.67;101671.06;5073609;28;20040;-75
2022/01/23 06:14:04;;;;;;;41.05;23.05;;;;;;;4.97;95.13;101674.59;5073269;28;20057;-74
2022/01/23 06:16:29;;;;;;;40.92;23.38;;;;;;;4.96;95.60;101670.22;5073922;28;20047;-75
2022/01/23 06:18:55;;;;;;;41.20;23.05;;;;;;;4.96;95.73;101673.72;5082016;28;20031;-75
2022/01/23 06:21:21;;;;;;;38.90;22.90;;;;;;;4.95;95.49;101679.09;5071958;28;20096;-76
2022/01/23 06:24:00;;;;;;;39.17;22.20;;;;;;;4.95;95.20;101681.72;5074294;28;20044;-76
2022/01/23 06:26:25;;;;;;;;;;;;;;;4.92;95.36;101679.19;5075915;28;20100;-75
2022/01/23 06:28:55;;;;;;;39.42;21.20;;;;;;;4.95;96.02;101676.44;5082006;28;19947;-76
2022/01/23 06:31:21;;;;;;;36.50;21.35;;;;;;;4.95;95.43;101679.94;5072229;28;20049;-76
2022/01/23 06:33:46;;;;;;;38.85;22.00;;;;;;;4.94;95.63;101672.91;5073148;28;20031;-75
2022/01/23 06:36:12;;;;;;;37.25;22.38;;;;;;;4.94;95.83;101677.34;5075257;28;20051;-76
2022/01/23 06:38:37;;;;;;;39.03;23.08;;;;;;;4.93;95.36;101681.78;5074726;28;20032;-76
2022/01/23 06:41:03;;;;;;;42.13;22.58;;;;;;;4.93;95.67;101687.09;5075640;28;20040;-75
2022/01/23 06:43:28;;;;;;;39.40;21.75;;;;;;;4.95;95.85;101681.72;5073578;28;20036;-77
2022/01/23 06:45:54;;;;;;;37.40;22.02;;;;;;;4.96;95.85;101689.63;5073657;28;20548;-75
2022/01/23 06:48:19;;;;;;;38.03;22.27;;;;;;;4.95;95.80;101690.56;5072904;28;20032;-76
2022/01/23 06:50:44;;;;;;;41.00;22.52;;;;;;;4.93;95.93;101694.19;5073175;28;20490;-76
2022/01/23 06:53:10;;;;;;;40.88;22.42;;;;;;;4.89;95.55;101690.78;5081093;28;20028;-75
2022/01/23 06:55:36;;;;;;;41.65;23.08;;;;;;;4.90;95.38;101695.16;5073581;28;20080;-76
2022/01/23 06:58:01;;;;;;;40.25;21.77;;;;;;;4.92;95.78;101697.75;5074176;28;20042;-75
2022/01/23 07:00:26;;;;;;;36.70;22.08;;;;;;;4.92;96.03;101695.09;5080503;28;20066;-75
2022/01/23 07:02:52;;;;;;;38.78;22.42;;;;;;;4.92;95.87;101695.09;5081028;28;20064;-76
2022/01/23 07:05:19;;;;;;;35.92;20.85;;;;;;;4.92;95.78;101693.31;5074930;28;20035;-76
2022/01/23 07:07:44;;;;;;;40.47;22.23;;;;;;;4.93;95.97;101697.69;5091133;28;20028;-74
2022/01/23 07:10:10;;;;;;;37.17;21.17;;;;;;;4.93;95.46;101694.19;5080717;28;20033;-75
2022/01/23 07:12:35;;;;;;;37.70;21.65;;;;;;;4.94;96.05;101706.50;5072242;28;20036;-76
2022/01/23 07:15:00;;;;;;;38.55;21.60;;;;;;;4.93;95.85;101708.31;5072913;28;20032;-76
2022/01/23 07:17:26;;;;;;;39.00;21.48;;;;;;;4.92;95.72;101709.22;5090096;28;20059;-77
2022/01/23 07:19:51;;;;;;;38.40;20.98;;;;;;;4.92;95.34;101711.00;5073424;28;20024;-75
2022/01/23 07:22:17;;;;;;;37.97;21.15;;;;;;;4.92;95.69;101721.63;5074938;28;20047;-74
2022/01/23 07:24:42;;;;;;;36.30;20.77;;;;;;;4.92;95.68;101709.22;5072767;28;20385;-76
2022/01/23 07:27:15;;;;;;;39.42;21.83;;;;;;;4.92;95.88;101703.91;5080267;28;20032;-75
2022/01/23 07:29:42;;;;;;;38.50;20.30;;;;;;;4.92;96.00;101705.72;5075757;28;20046;-74
2022/01/23 07:32:09;;;;;;;38.38;22.42;;;;;;;4.93;96.10;101710.94;5084127;28;20050;-75
2022/01/23 07:34:34;;;;;;;38.30;21.90;;;;;;;4.94;96.21;101722.41;5077062;28;20055;-76
2022/01/23 07:37:00;;;;;;;38.42;22.77;;;;;;;4.91;96.04;101714.59;5077165;28;20043;-75
2022/01/23 07:39:25;;;;;;;40.20;23.23;;;;;;;4.89;95.70;101722.59;5083572;28;20107;-75
2022/01/23 07:41:51;;;;;;;36.88;21.23;;;;;;;4.91;95.68;101726.03;5083634;28;20043;-76
2022/01/23 07:44:16;;;;;;;38.78;21.58;;;;;;;4.87;95.48;101727.09;5093265;28;20035;-75
2022/01/23 07:46:41;;;;;;;41.45;22.30;;;;;;;4.91;95.49;101723.41;5073897;28;20038;-75
2022/01/23 07:49:10;;;;;;;37.13;20.48;;;;;;;4.93;95.93;101721.56;5089753;28;20066;-76
2022/01/23 07:51:35;;;;;;;39.17;21.27;;;;;;;4.94;95.52;101719.78;5091244;28;20039;-76
2022/01/23 07:54:01;;;;;;;37.60;22.15;;;;;;;4.92;95.48;101722.47;5075481;28;20032;-76
2022/01/23 07:56:29;;;;;;;42.83;22.25;;;;;;;4.91;95.51;101722.53;5074150;28;20103;-76
2022/01/23 07:58:54;;;;;;;38.40;21.70;;;;;;;4.90;95.70;101720.81;5074426;28;20044;-75
2022/01/23 08:01:20;;;;;;;35.85;20.70;;;;;;;4.90;95.40;101734.94;5073350;28;20039;-75
2022/01/23 08:03:45;;;;;;;40.05;21.73;;;;;;;4.92;95.96;101735.72;5090438;28;20036;-76
2022/01/23 08:06:13;;;;;;;36.40;21.17;;;;;;;4.93;95.76;101745.41;5083987;28;20040;-75
2022/01/23 08:08:39;;;;;;;38.78;21.00;;;;;;;4.93;95.60;101744.53;5075001;28;20035;-76
2022/01/23 08:11:07;;;;;;;38.00;21.55;;;;;;;4.93;95.60;101741.91;5075471;28;20103;-75
2022/01/23 08:13:33;;;;;;;38.67;22.02;;;;;;;4.92;95.95;101750.78;5074118;28;20024;-75
2022/01/23 08:16:00;;;;;;;42.75;22.95;;;;;;;4.90;95.66;101745.53;5095261;28;20048;-76
2022/01/23 08:18:25;;;;;;;37.33;21.77;;;;;;;4.90;95.73;101752.63;5081825;28;20043;-75
2022/01/23 08:20:50;;;;;;;38.40;22.40;;;;;;;4.92;95.79;101753.41;5083428;28;20051;-75
2022/01/23 08:23:17;;;;;;;39.00;22.13;;;;;;;4.94;96.03;101754.22;5081860;28;20035;-75
2022/01/23 08:25:43;;;;;;;42.25;22.65;;;;;;;4.93;95.88;101756.00;5090946;28;20047;-75
2022/01/23 08:28:08;;;;;;;42.15;21.08;;;;;;;4.95;96.09;101756.81;5089292;28;20028;-76
2022/01/23 08:30:34;;;;;;;39.58;21.23;;;;;;;4.96;95.49;101753.25;5072723;28;20119;-75
2022/01/23 08:32:59;;;;;;;39.10;21.17;;;;;;;4.97;95.83;101759.41;5072809;28;20489;-75
2022/01/23 08:35:26;;;;;;;36.85;21.30;;;;;;;4.97;95.42;101759.41;5075665;28;20031;-74
2022/01/23 08:37:52;;;;;;;39.90;21.92;;;;;;;4.96;95.75;101761.19;5075214;28;20046;-75
2022/01/23 08:40:45;;;;;;;37.55;21.02;;;;;;;4.95;95.23;101766.56;5082234;28;20040;-77
2022/01/23 08:43:14;;;;;;;36.60;21.45;;;;;;;4.95;95.44;101763.91;5099382;28;20099;-74
2022/01/23 08:45:39;;;;;;;37.92;21.00;;;;;;;4.95;95.53;101774.50;5095341;28;20117;-76
2022/01/23 08:48:05;;;;;;;37.95;21.83;;;;;;;4.94;95.41;101772.78;5087172;28;20071;-76
2022/01/23 08:50:30;;;;;;;39.15;21.33;;;;;;;4.91;95.33;101781.72;5079252;28;20122;-75
2022/01/23 08:52:56;;;;;;;35.47;20.67;;;;;;;4.93;95.74;101773.69;5087246;28;20042;-75
2022/01/23 08:55:24;;;;;;;36.83;21.85;;;;;;;4.95;95.41;101779.81;5079220;28;20062;-76
2022/01/23 08:57:49;;;;;;;38.33;20.80;;;;;;;4.97;95.32;101773.53;5087612;28;20035;-75
2022/01/23 09:00:18;;;;;;;38.72;21.25;;;;;;;5.00;95.31;101783.16;5085789;28;20308;-76
2022/01/23 09:02:43;;;;;;;37.63;21.90;;;;;;;4.99;95.56;101774.34;5078268;28;20032;-77
2022/01/23 09:05:09;;;;;;;35.97;20.60;;;;;;;4.99;95.69;101774.34;5087127;28;20058;-76
2022/01/23 09:07:34;;;;;;;35.78;20.17;;;;;;;4.99;95.42;101776.13;5086496;28;20039;-74
2022/01/23 09:10:03;;;;;;;37.17;22.00;;;;;;;4.99;95.88;101773.47;5085738;28;20082;-76
2022/01/23 09:15:03;;;;;;;39.20;21.30;;;;;;;5.00;95.71;101765.47;5097349;28;20035;-76
2022/01/23 09:17:29;;;;;;;40.45;21.88;;;;;;;4.98;95.74;101767.31;5093561;28;20043;-75
2022/01/23 09:19:54;;;;;;;35.80;20.92;;;;;;;4.99;95.62;101763.72;5079087;28;20032;-76
2022/01/23 09:22:19;;;;;;;40.22;21.60;;;;;;;4.99;95.69;101768.16;5087329;28;20032;-75
2022/01/23 09:24:45;;;;;;;40.58;22.33;;;;;;;4.98;95.46;101762.00;5096762;28;20484;-75
2022/01/23 09:27:18;;;;;;;39.60;20.58;;;;;;;5.00;95.62;101764.59;5085445;28;20370;-75
2022/01/23 09:29:49;;;;;;;39.42;21.13;;;;;;;5.01;95.58;101767.19;5086083;28;20069;-75
2022/01/23 09:32:16;;;;;;;35.90;20.33;;;;;;;5.03;95.28;101765.34;5081030;28;20047;-77
2022/01/23 09:34:43;;;;;;;36.22;19.85;;;;;;;5.07;95.80;101766.94;5076808;28;20043;-76
2022/01/23 09:37:11;;;;;;;38.53;21.05;;;;;;;5.09;95.92;101766.91;5086471;28;20028;-76
2022/01/23 09:39:38;;;;;;;40.53;21.13;;;;;;;5.10;96.09;101767.75;5078480;28;20027;-76
2022/01/23 09:42:16;;;;;;;39.83;21.42;;;;;;;5.11;95.76;101773.00;5079509;28;20099;-75
2022/01/23 09:44:47;;;;;;;37.33;19.85;;;;;;;5.11;95.92;101774.78;5095366;28;20036;-74
2022/01/23 09:47:14;;;;;;;37.53;20.67;;;;;;;5.13;95.58;101783.56;5080959;28;20051;-75
2022/01/23 09:49:40;;;;;;;38.50;21.55;;;;;;;5.16;95.17;101786.09;5078733;28;20031;-75
2022/01/23 09:52:07;;;;;;;36.90;20.40;;;;;;;5.14;95.29;101780.84;5078601;28;20031;-77
2022/01/23 09:54:33;;;;;;;38.65;21.77;;;;;;;5.14;95.78;101779.97;5095461;28;20040;-76
2022/01/23 09:57:01;;;;;;;35.78;20.92;;;;;;;5.15;95.86;101781.69;5096776;28;20091;-77
2022/01/23 09:59:28;;;;;;;36.38;20.77;;;;;;;5.16;95.89;101783.44;5076954;28;20479;-74
2022/01/23 10:01:56;;;;;;;36.72;20.05;;;;;;;5.17;95.78;101780.72;5077094;28;20066;-75
2022/01/23 10:04:23;;;;;;;32.92;18.88;;;;;;;5.18;95.40;101774.50;5078635;27;20089;-76
2022/01/23 10:06:48;;;;;;;35.05;20.65;;;;;;;5.17;95.46;101779.84;5084195;28;20055;-75
2022/01/23 10:09:14;;;;;;;36.78;20.40;;;;;;;5.19;95.83;101778.88;5077657;28;20031;-77
2022/01/23 10:11:42;;;;;;;34.25;19.90;;;;;;;5.20;95.41;101785.03;5078963;28;20099;-76
2022/01/23 10:14:08;;;;;;;35.00;20.17;;;;;;;5.19;96.03;101784.19;5077609;28;20046;-76
2022/01/23 10:16:33;;;;;;;37.47;20.25;;;;;;;5.22;95.63;101781.44;5076603;28;20051;-76
2022/01/23 10:19:01;;;;;;;39.85;21.77;;;;;;;5.23;95.56;101777.00;5083467;28;20044;-76
2022/01/23 10:21:26;;;;;;;43.70;22.90;;;;;;;5.23;95.43;101777.88;5084492;28;20069;-76
2022/01/23 10:23:53;;;;;;;40.05;22.42;;;;;;;5.25;95.66;101780.47;5076417;28;20040;-75
2022/01/23 10:26:43;;;;;;;39.15;21.60;;;;;;;5.25;95.70;101785.75;5078978;28;20023;-75
2022/01/23 10:29:25;;;;;;;37.55;21.20;;;;;;;5.27;95.61;101782.13;5093293;28;20040;-76
2022/01/23 10:32:21;;;;;;;36.15;20.63;;;;;;;5.28;95.49;101780.34;5079498;27;20040;-76
2022/01/23 10:34:46;;;;;;;32.67;18.80;;;;;;;5.29;96.01;101766.16;5085941;28;20043;-76
2022/01/23 10:37:23;;;;;;;35.40;19.75;;;;;;;5.32;95.96;101768.69;5093779;28;20036;-78
2022/01/23 10:39:49;;;;;;;33.63;18.90;;;;;;;5.33;95.35;101765.97;5110142;28;20039;-75
2022/01/23 10:42:35;;;;;;;34.15;19.55;;;;;;;5.38;95.69;101771.09;5080622;28;20028;-76
2022/01/23 10:47:56;;;;;;;36.30;20.55;;;;;;;5.40;95.84;101763.94;5099801;27;20085;-75
2022/01/23 10:50:24;;;;;;;31.95;18.75;;;;;;;5.40;95.50;101761.28;5078837;27;20065;-76
2022/01/23 10:52:51;;;;;;;35.08;19.80;;;;;;;5.42;96.07;101758.56;5083930;28;20028;-75
2022/01/23 10:55:29;;;;;;;35.83;20.55;;;;;;;5.41;95.98;101759.50;5089383;28;20054;-77
2022/01/23 10:57:58;;;;;;;33.43;19.63;;;;;;;5.43;95.83;101750.56;5076213;28;20088;-76
2022/01/23 11:00:31;;;;;;;;;;;;;;;5.44;96.02;101756.72;5082260;27;20114;-76
2022/01/23 11:02:58;;;;;;;31.10;17.55;;;;;;;5.43;96.06;101761.16;5095661;28;19916;-75
2022/01/23 11:05:35;;;;;;;32.30;18.90;;;;;;;5.44;95.70;101759.38;5082274;28;20035;-76
2022/01/23 11:08:01;;;;;;;33.38;17.92;;;;;;;5.45;96.09;101754.00;5075576;27;20020;-75
2022/01/23 11:10:28;;;;;;;28.58;17.35;;;;;;;5.47;95.98;101753.94;5077330;28;20038;-75
2022/01/23 11:18:09;;;;;;;27.05;16.52;;;;;;;5.48;95.38;101760.97;5108622;27;20047;-77
2022/01/23 11:20:49;;;;;;;32.13;17.85;;;;;;;5.48;95.25;101756.53;5091601;28;20027;-75
2022/01/23 11:23:27;;;;;;;31.60;17.20;;;;;;;5.49;95.13;101750.31;5074753;27;20023;-76
2022/01/23 11:25:52;;;;;;;29.35;17.27;;;;;;;5.49;95.47;101749.44;5077356;28;21042;-76
2022/01/23 11:28:22;;;;;;;26.90;15.57;;;;;;;5.48;94.98;101751.22;5093569;27;20038;-77
2022/01/23 11:30:50;;;;;;;29.13;16.50;;;;;;;5.48;95.08;101745.06;5076987;28;20059;-75
2022/01/23 11:33:18;;;;;;;27.90;16.52;;;;;;;5.49;95.18;101747.66;5082629;28;20088;-75
2022/01/23 11:35:46;;;;;;;31.40;16.42;;;;;;;5.50;95.96;101752.03;5094754;28;20085;-75
2022/01/23 11:38:16;;;;;;;26.63;15.43;;;;;;;5.51;95.40;101747.59;5075842;27;20544;-77
2022/01/23 11:54:45;;;;;;;29.10;16.25;;;;;;;5.54;95.23;101743.03;5102036;28;20069;-76
2022/01/23 11:57:45;;;;;;;25.30;15.18;;;;;;;5.56;95.31;101741.19;5076158;28;20068;-75
2022/01/23 12:00:26;;;;;;;22.88;14.32;;;;;;;5.56;95.03;101733.22;5076159;28;20450;-76
2022/01/23 12:03:17;;;;;;;25.17;15.00;;;;;;;5.58;95.27;101728.72;5077678;28;20047;-75
2022/01/23 12:05:45;;;;;;;27.30;16.17;;;;;;;5.59;95.44;101735.75;5077809;28;20050;-76
2022/01/23 12:08:19;;;;;;;25.05;14.85;;;;;;;5.59;95.41;101732.22;5077948;28;20046;-76
2022/01/23 12:11:56;;;;;;;29.35;15.85;;;;;;;5.60;95.04;101724.19;5076463;28;20036;-76
2022/01/23 12:17:01;;;;;;;27.10;15.38;;;;;;;5.61;95.00;101717.09;5112262;27;20040;-74
2022/01/23 12:19:28;;;;;;;26.27;15.00;;;;;;;5.60;95.02;101716.25;5087053;28;20024;-74
2022/01/23 12:21:56;;;;;;;27.40;15.10;;;;;;;5.61;94.89;101715.31;5097713;28;20038;-75
2022/01/23 12:24:23;;;;;;;26.60;15.57;;;;;;;5.60;94.52;101710.94;5081786;27;20024;-75
2022/01/23 12:26:50;;;;;;;29.63;15.98;;;;;;;5.62;94.51;101716.19;5080616;27;20028;-75
2022/01/23 12:29:24;;;;;;;26.80;15.57;;;;;;;5.60;94.22;101705.63;5078835;28;20028;-74
2022/01/23 12:32:10;;;;;;;28.63;16.98;;;;;;;5.61;94.46;101707.34;5084651;28;20122;-75
2022/01/23 12:34:50;;;;;;;26.15;15.10;;;;;;;5.61;94.40;101709.16;5096375;27;20031;-75
2022/01/23 12:37:15;;;;;;;28.25;15.98;;;;;;;5.60;94.91;101705.63;5085477;28;20024;-75
2022/01/23 12:39:41;;;;;;;27.63;15.95;;;;;;;5.60;94.12;101707.41;5079376;27;20071;-74
2022/01/23 12:42:06;;;;;;;28.67;16.65;;;;;;;5.60;94.50;101700.31;5097215;27;20050;-74
2022/01/23 12:44:34;;;;;;;26.20;16.35;;;;;;;5.63;94.32;101699.31;5085567;28;20051;-75
2022/01/23 12:47:03;;;;;;;31.85;17.65;;;;;;;5.63;94.31;101694.88;5096250;27;20042;-73
2022/01/23 12:49:30;;;;;;;30.17;16.83;;;;;;;5.64;94.80;101690.44;5095337;27;20047;-75
2022/01/23 12:52:11;;;;;;;28.30;17.02;;;;;;;5.63;94.24;101691.38;5079140;27;20027;-74
2022/01/23 12:55:00;;;;;;;29.73;16.45;;;;;;;5.62;94.23;101682.53;5096547;27;20032;-74
2022/01/23 12:57:34;;;;;;;28.27;16.15;;;;;;;5.64;94.50;101672.72;5075599;27;20954;-74
2022/01/23 13:00:04;;;;;;;27.23;15.80;;;;;;;5.66;93.93;101670.88;5096210;27;20051;-74
2022/01/23 13:02:37;;;;;;;26.92;16.23;;;;;;;5.67;94.40;101669.09;5077988;27;20039;-74
2022/01/23 13:05:03;;;;;;;26.00;15.18;;;;;;;5.69;94.58;101675.22;5096618;27;20099;-75
2022/01/23 13:10:07;;;;;;;26.50;15.60;;;;;;;5.73;94.40;101668.84;5097603;28;20046;-75
2022/01/23 13:13:23;;;;;;;27.45;16.17;;;;;;;5.72;94.64;101660.97;5078873;27;20057;-73
2022/01/23 13:15:39;;;;;;;;;;;;;;;5.73;94.04;101662.69;5089229;27;20054;-75
2022/01/23 13:29:56;;;;;;;23.08;14.50;;;;;;;5.63;93.08;101655.06;5102799;27;20036;-74
2022/01/23 13:32:32;;;;;;;25.08;14.85;;;;;;;5.64;93.40;101651.50;5097124;27;20382;-74
2022/01/23 13:35:10;;;;;;;24.60;14.98;;;;;;;5.67;93.62;101655.81;5080406;27;20024;-75
2022/01/23 13:37:38;;;;;;;24.73;14.18;;;;;;;5.67;93.90;101647.84;5102409;27;20100;-74
2022/01/23 13:40:13;;;;;;;24.13;14.27;;;;;;;5.68;93.55;101652.25;5093265;28;20061;-75
2022/01/23 13:59:32;;;;;;;26.40;15.05;;;;;;;5.68;92.92;101650.47;5096708;28;20098;-74
2022/01/23 14:04:34;;;;;;;24.08;14.85;;;;;;;5.71;93.13;101657.44;5091780;27;20032;-74
2022/01/23 14:07:00;;;;;;;28.70;16.35;;;;;;;5.69;93.00;101654.00;5072607;28;20027;-75
2022/01/23 14:09:26;;;;;;;25.85;15.50;;;;;;;5.68;92.97;101646.94;5092726;27;20034;-74
2022/01/23 14:11:52;;;;;;;26.85;14.43;;;;;;;5.68;92.69;101654.91;5083323;27;20034;-73
2022/01/23 14:14:25;;;;;;;27.42;14.68;;;;;;;5.66;92.52;101652.28;5093363;27;20031;-75
2022/01/23 14:16:54;;;;;;;25.55;15.10;;;;;;;5.66;93.02;101644.34;5081399;27;20112;-74
2022/01/23 14:19:25;;;;;;;25.25;14.80;;;;;;;5.66;92.44;101647.00;5073326;27;20034;-75
2022/01/23 14:21:57;;;;;;;23.10;13.73;;;;;;;5.67;92.02;101648.72;5074358;27;20064;-76
2022/01/23 14:24:28;;;;;;;22.73;13.60;;;;;;;5.69;92.95;101652.19;5092200;27;20045;-74
2022/01/23 14:26:59;;;;;;;26.10;14.38;;;;;;;5.68;92.41;101647.81;5074660;27;20055;-74
2022/01/23 14:29:26;;;;;;;23.33;14.30;;;;;;;5.69;92.24;101651.34;5078973;27;20023;-73
2022/01/23 14:32:05;;;;;;;24.35;14.60;;;;;;;5.69;92.32;101649.53;5075004;27;20203;-74
2022/01/23 14:34:31;;;;;;;23.25;14.60;;;;;;;5.69;92.43;101656.63;5078976;28;20068;-74
2022/01/23 14:36:59;;;;;;;28.13;15.52;;;;;;;5.69;92.30;101651.34;5073327;28;20047;-74
2022/01/23 14:39:24;;;;;;;24.85;15.27;;;;;;;5.69;92.70;101654.00;5091587;27;20535;-73
2022/01/23 14:41:50;;;;;;;23.67;14.57;;;;;;;5.68;92.00;101653.13;5074123;28;20036;-74
2022/01/23 14:44:18;;;;;;;25.38;15.30;;;;;;;5.67;92.26;101654.03;5074400;27;20031;-74
2022/01/23 14:47:01;;;;;;;22.48;13.98;;;;;;;5.67;92.40;101654.03;5094697;27;20035;-74
2022/01/23 14:49:31;;;;;;;23.95;14.88;;;;;;;5.70;92.24;101650.41;5094143;27;20126;-75